createdAt,value
2023-08-11T00:00:35.444Z,173.81
2023-08-11T00:01:35.448Z,174.35
2023-08-11T00:02:35.441Z,172.92
2023-08-11T00:03:35.485Z,175.99
2023-08-11T00:04:35.400Z,174.89
2023-08-11T00:05:35.392Z,172.86
2023-08-11T00:06:35.393Z,173.36
2023-08-11T00:07:35.383Z,170.67
2023-08-11T00:08:35.471Z,171.58
2023-08-11T00:09:35.376Z,172.80
2023-08-11T00:10:35.377Z,172.50
2023-08-11T00:11:35.351Z,165.73
2023-08-11T00:12:35.358Z,167.40
2023-08-11T00:13:35.325Z,167.68
2023-08-11T00:14:35.340Z,166.63
2023-08-11T00:15:35.448Z,168.41
2023-08-11T00:16:35.332Z,166.30
2023-08-11T00:17:35.393Z,167.41
2023-08-11T00:18:35.329Z,165.87
2023-08-11T00:19:35.297Z,166.22
2023-08-11T00:20:35.297Z,167.90
2023-08-11T00:21:35.301Z,165.70
2023-08-11T00:22:35.289Z,168.72
2023-08-11T00:23:35.273Z,163.88
2023-08-11T00:24:35.270Z,165.39
2023-08-11T00:25:35.301Z,167.21
2023-08-11T00:26:35.261Z,165.70
2023-08-11T00:27:35.278Z,164.16
2023-08-11T00:28:35.247Z,164.32
2023-08-11T00:29:35.240Z,167.12
2023-08-11T00:30:35.213Z,166.24
2023-08-11T00:31:35.263Z,168.44
2023-08-11T00:32:35.250Z,165.29
2023-08-11T00:33:35.228Z,166.55
2023-08-11T00:34:35.203Z,164.41
2023-08-11T00:35:35.176Z,164.08
2023-08-11T00:36:35.170Z,162.71
2023-08-11T00:37:35.189Z,165.40
2023-08-11T00:38:35.164Z,162.06
2023-08-11T00:39:35.143Z,164.21
2023-08-11T00:40:35.145Z,162.85
2023-08-11T00:41:35.154Z,162.89
2023-08-11T00:42:35.198Z,160.41
2023-08-11T00:43:35.239Z,162.60
2023-08-11T00:44:35.247Z,159.60
2023-08-11T00:45:35.330Z,158.25
2023-08-11T00:46:35.334Z,157.88
2023-08-11T00:47:35.376Z,161.54
2023-08-11T00:48:35.370Z,163.57
2023-08-11T00:49:35.429Z,156.39
2023-08-11T00:50:35.432Z,155.97
2023-08-11T00:51:35.494Z,156.69
2023-08-11T00:52:35.528Z,155.39
2023-08-11T00:53:35.541Z,154.60
2023-08-11T00:54:35.586Z,158.32
2023-08-11T00:55:35.627Z,157.50
2023-08-11T00:56:35.647Z,160.06
2023-08-11T00:57:35.704Z,158.04
2023-08-11T00:58:35.766Z,155.15
2023-08-11T00:59:35.781Z,155.38
2023-08-11T01:00:35.852Z,157.72
2023-08-11T01:01:35.846Z,157.17
2023-08-11T01:02:35.964Z,159.20
2023-08-11T01:03:35.934Z,156.58
2023-08-11T01:04:35.988Z,158.08
2023-08-11T01:05:36.002Z,157.77
2023-08-11T01:06:36.061Z,158.40
2023-08-11T01:07:36.082Z,155.52
2023-08-11T01:08:36.110Z,157.29
2023-08-11T01:09:36.157Z,156.81
2023-08-11T01:10:36.231Z,156.38
2023-08-11T01:11:36.229Z,154.95
2023-08-11T01:12:36.401Z,154.96
2023-08-11T01:13:36.314Z,153.97
2023-08-11T01:14:36.351Z,153.42
2023-08-11T01:15:36.423Z,153.72
2023-08-11T01:16:36.464Z,152.95
2023-08-11T01:17:36.533Z,154.77
2023-08-11T01:18:36.512Z,154.72
2023-08-11T01:19:36.524Z,153.74
2023-08-11T01:20:36.572Z,152.05
2023-08-11T01:21:36.615Z,154.77
2023-08-11T01:22:36.638Z,153.28
2023-08-11T01:23:36.693Z,152.60
2023-08-11T01:24:36.726Z,153.18
2023-08-11T01:25:36.771Z,157.72
2023-08-11T01:26:36.759Z,156.97
2023-08-11T01:27:36.802Z,154.81
2023-08-11T01:28:36.823Z,155.00
2023-08-11T01:29:36.876Z,158.71
2023-08-11T01:30:36.989Z,157.75
2023-08-11T01:31:36.912Z,157.40
2023-08-11T01:32:36.996Z,158.74
2023-08-11T01:33:37.022Z,157.91
2023-08-11T01:34:37.073Z,156.13
2023-08-11T01:35:41.558Z,154.89
2023-08-11T01:36:38.078Z,155.08
2023-08-11T01:37:37.063Z,155.41
2023-08-11T01:38:37.096Z,155.04
2023-08-11T01:39:37.061Z,154.35
2023-08-11T01:40:37.137Z,152.59
2023-08-11T01:41:37.038Z,152.27
2023-08-11T01:42:43.200Z,149.97
2023-08-11T01:43:38.032Z,150.26
2023-08-11T01:44:37.048Z,150.50
2023-08-11T01:45:37.039Z,149.35
2023-08-11T01:46:37.048Z,148.97
2023-08-11T01:47:37.068Z,148.35
2023-08-11T01:48:36.997Z,144.01
2023-08-11T01:49:36.986Z,145.36
2023-08-11T01:50:36.997Z,146.92
2023-08-11T01:51:36.995Z,145.21
2023-08-11T01:52:36.985Z,147.17
2023-08-11T01:53:37.060Z,146.47
2023-08-11T01:54:37.007Z,144.46
2023-08-11T01:55:37.060Z,145.63
2023-08-11T01:56:37.083Z,144.22
2023-08-11T01:57:41.906Z,142.86
2023-08-11T01:58:38.156Z,143.20
2023-08-11T01:59:37.101Z,143.40
2023-08-11T02:00:37.111Z,144.07
2023-08-11T02:01:37.188Z,143.99
2023-08-11T02:02:37.206Z,144.40
2023-08-11T02:03:37.276Z,145.12
2023-08-11T02:04:37.089Z,145.29
2023-08-11T02:05:37.081Z,145.18
2023-08-11T02:06:37.076Z,145.62
2023-08-11T02:07:37.070Z,144.20
2023-08-11T02:08:37.101Z,146.23
2023-08-11T02:09:37.147Z,143.18
2023-08-11T02:10:37.215Z,147.14
2023-08-11T02:11:37.228Z,144.98
2023-08-11T02:12:37.282Z,146.49
2023-08-11T02:13:37.332Z,147.11
2023-08-11T02:14:37.376Z,144.08
2023-08-11T02:15:37.444Z,144.69
2023-08-11T02:16:37.564Z,141.84
2023-08-11T02:17:37.547Z,143.88
2023-08-11T02:18:37.619Z,143.43
2023-08-11T02:19:37.605Z,141.21
2023-08-11T02:20:37.674Z,141.92
2023-08-11T02:21:37.704Z,143.16
2023-08-11T02:22:37.762Z,140.11
2023-08-11T02:23:37.859Z,139.22
2023-08-11T02:24:37.825Z,138.71
2023-08-11T02:25:37.878Z,137.98
2023-08-11T02:26:37.981Z,138.45
2023-08-11T02:27:37.989Z,135.48
2023-08-11T02:28:38.098Z,135.88
2023-08-11T02:29:38.090Z,136.51
2023-08-11T02:30:38.129Z,133.57
2023-08-11T02:31:38.233Z,134.89
2023-08-11T02:32:38.250Z,134.67
2023-08-11T02:33:38.276Z,134.78
2023-08-11T02:34:38.315Z,135.24
2023-08-11T02:35:38.380Z,134.94
2023-08-11T02:36:38.416Z,132.41
2023-08-11T02:37:38.451Z,133.96
2023-08-11T02:38:38.515Z,134.54
2023-08-11T02:39:40.738Z,130.96
2023-08-11T02:40:38.592Z,135.39
2023-08-11T02:41:38.646Z,133.92
2023-08-11T02:42:38.668Z,135.15
2023-08-11T02:43:38.724Z,129.97
2023-08-11T02:44:38.813Z,133.33
2023-08-11T02:45:38.859Z,133.27
2023-08-11T02:46:38.896Z,130.84
2023-08-11T02:47:38.963Z,131.69
2023-08-11T02:48:38.982Z,128.63
2023-08-11T02:49:38.997Z,132.01
2023-08-11T02:50:39.098Z,131.65
2023-08-11T02:51:39.117Z,132.69
2023-08-11T02:52:39.160Z,133.21
2023-08-11T02:53:39.206Z,132.28
2023-08-11T02:54:39.247Z,129.25
2023-08-11T02:55:39.292Z,127.11
2023-08-11T02:56:39.343Z,127.65
2023-08-11T02:57:39.390Z,126.16
2023-08-11T02:58:39.426Z,126.89
2023-08-11T02:59:39.520Z,122.49
2023-08-11T03:00:39.550Z,127.08
2023-08-11T03:01:39.581Z,127.40
2023-08-11T03:02:39.715Z,129.30
2023-08-11T03:03:39.706Z,124.55
2023-08-11T03:04:39.744Z,126.29
2023-08-11T03:05:39.769Z,125.89
2023-08-11T03:06:39.833Z,125.63
2023-08-11T03:07:39.894Z,128.52
2023-08-11T03:08:39.909Z,126.20
2023-08-11T03:09:39.994Z,127.85
2023-08-11T03:10:54.783Z,127.85
2023-08-11T03:11:41.036Z,128.02
2023-08-11T03:12:39.998Z,128.33
2023-08-11T03:13:39.987Z,128.46
2023-08-11T03:14:40.006Z,126.92
2023-08-11T03:15:40.027Z,127.67
2023-08-11T03:16:40.000Z,128.84
2023-08-11T03:17:40.062Z,128.11
2023-08-11T03:18:39.955Z,125.65
2023-08-11T03:19:39.958Z,127.45
2023-08-11T03:20:39.973Z,124.33
2023-08-11T03:21:40.041Z,124.34
2023-08-11T03:22:40.089Z,124.57
2023-08-11T03:23:40.158Z,125.50
2023-08-11T03:24:41.168Z,125.74
2023-08-11T03:25:40.264Z,126.88
2023-08-11T03:26:40.360Z,127.87
2023-08-11T03:27:40.376Z,126.09
2023-08-11T03:28:40.409Z,126.02
2023-08-11T03:29:40.488Z,127.46
2023-08-11T03:30:40.566Z,124.14
2023-08-11T03:31:40.623Z,124.55
2023-08-11T03:32:40.756Z,124.85
2023-08-11T03:33:40.725Z,121.71
2023-08-11T03:34:40.788Z,124.64
2023-08-11T03:35:40.841Z,124.35
2023-08-11T03:36:40.870Z,121.41
2023-08-11T03:37:40.960Z,123.47
2023-08-11T03:38:40.984Z,123.71
2023-08-11T03:39:41.072Z,121.40
2023-08-11T03:40:41.121Z,120.05
2023-08-11T03:41:41.176Z,119.88
2023-08-11T03:42:41.224Z,120.92
2023-08-11T03:43:41.291Z,120.40
2023-08-11T03:44:41.351Z,117.54
2023-08-11T03:45:41.417Z,119.77
2023-08-11T03:46:41.499Z,116.74
2023-08-11T03:47:41.541Z,117.93
2023-08-11T03:48:41.566Z,117.09
2023-08-11T03:49:41.638Z,117.27
2023-08-11T03:50:41.705Z,117.23
2023-08-11T03:51:41.773Z,117.23
2023-08-11T03:52:41.803Z,118.15
2023-08-11T03:53:41.857Z,115.33
2023-08-11T03:54:45.384Z,115.33
2023-08-11T03:55:41.895Z,119.45
2023-08-11T03:56:41.896Z,116.98
2023-08-11T03:57:41.893Z,115.65
2023-08-11T03:58:41.907Z,115.22
2023-08-11T03:59:41.918Z,113.71
2023-08-11T04:00:41.970Z,114.91
2023-08-11T04:01:41.871Z,112.37
2023-08-11T04:02:41.910Z,112.44
2023-08-11T04:03:41.943Z,110.88
2023-08-11T04:04:41.869Z,111.58
2023-08-11T04:05:41.842Z,110.64
2023-08-11T04:06:41.874Z,111.20
2023-08-11T04:07:41.838Z,112.28
2023-08-11T04:08:41.798Z,111.51
2023-08-11T04:09:41.811Z,109.80
2023-08-11T04:10:41.820Z,109.77
2023-08-11T04:11:41.785Z,109.07
2023-08-11T04:12:41.810Z,108.41
2023-08-11T04:13:41.783Z,108.35
2023-08-11T04:14:41.757Z,108.78
2023-08-11T04:15:41.764Z,106.17
2023-08-11T04:16:41.804Z,109.37
2023-08-11T04:17:41.815Z,108.59
2023-08-11T04:18:41.729Z,107.75
2023-08-11T04:19:41.899Z,105.33
2023-08-11T04:20:41.868Z,105.41
2023-08-11T04:21:41.905Z,106.16
2023-08-11T04:22:41.975Z,103.44
2023-08-11T04:23:42.044Z,105.61
2023-08-11T04:24:42.090Z,103.63
2023-08-11T04:25:42.156Z,105.93
2023-08-11T04:26:42.203Z,106.47
2023-08-11T04:27:42.261Z,102.41
2023-08-11T04:28:42.322Z,103.33
2023-08-11T04:29:42.392Z,101.92
2023-08-11T04:30:42.516Z,100.52
2023-08-11T04:31:42.493Z,102.84
2023-08-11T04:32:42.582Z,99.47
2023-08-11T04:33:42.649Z,102.65
2023-08-11T04:34:42.708Z,102.52
2023-08-11T04:35:42.742Z,103.08
2023-08-11T04:36:42.809Z,101.49
2023-08-11T04:37:42.931Z,103.63
2023-08-11T04:38:42.952Z,103.06
2023-08-11T04:39:42.984Z,102.56
2023-08-11T04:40:43.056Z,100.72
2023-08-11T04:41:43.122Z,100.24
2023-08-11T04:42:43.176Z,97.72
2023-08-11T04:43:43.213Z,97.50
2023-08-11T04:44:43.284Z,101.80
2023-08-11T04:45:43.311Z,97.61
2023-08-11T04:46:43.441Z,99.74
2023-08-11T04:47:43.457Z,99.33
2023-08-11T04:48:43.493Z,100.68
2023-08-11T04:49:43.563Z,98.94
2023-08-11T04:50:43.645Z,98.51
2023-08-11T04:51:43.662Z,96.36
2023-08-11T04:52:45.353Z,98.57
2023-08-11T04:53:43.729Z,100.80
2023-08-11T04:54:43.708Z,98.96
2023-08-11T04:55:43.726Z,99.11
2023-08-11T04:56:43.711Z,100.47
2023-08-11T04:57:43.686Z,99.02
2023-08-11T04:58:43.682Z,101.76
2023-08-11T04:59:43.704Z,101.29
2023-08-11T05:00:43.711Z,100.07
2023-08-11T05:01:43.744Z,100.72
2023-08-11T05:02:43.718Z,99.26
2023-08-11T05:03:43.826Z,98.32
2023-08-11T05:04:43.663Z,98.88
2023-08-11T05:05:43.653Z,96.75
2023-08-11T05:06:43.670Z,100.92
2023-08-11T05:07:43.643Z,97.67
2023-08-11T05:08:43.628Z,99.24
2023-08-11T05:09:43.626Z,98.29
2023-08-11T05:10:43.624Z,98.52
2023-08-11T05:11:43.609Z,100.23
2023-08-11T05:12:43.608Z,99.06
2023-08-11T05:13:43.607Z,99.89
2023-08-11T05:14:43.582Z,99.27
2023-08-11T05:15:43.578Z,101.92
2023-08-11T05:16:43.623Z,99.93
2023-08-11T05:17:43.647Z,99.29
2023-08-11T05:18:44.500Z,104.61
2023-08-11T05:19:43.567Z,105.86
2023-08-11T05:20:43.576Z,103.05
2023-08-11T05:21:43.542Z,104.73
2023-08-11T05:22:43.567Z,103.85
2023-08-11T05:23:43.537Z,108.75
2023-08-11T05:24:43.544Z,107.13
2023-08-11T05:25:43.522Z,107.05
2023-08-11T05:26:43.582Z,109.00
2023-08-11T05:27:43.557Z,107.11
2023-08-11T05:28:43.573Z,105.19
2023-08-11T05:29:43.596Z,109.53
2023-08-11T05:30:43.631Z,110.30
2023-08-11T05:31:43.669Z,112.77
2023-08-11T05:32:43.714Z,113.24
2023-08-11T05:33:43.673Z,110.68
2023-08-11T05:34:43.755Z,114.64
2023-08-11T05:35:43.709Z,113.35
2023-08-11T05:36:43.771Z,112.42
2023-08-11T05:37:43.742Z,112.88
2023-08-11T05:38:43.796Z,113.36
2023-08-11T05:39:43.782Z,113.52
2023-08-11T05:40:43.793Z,113.80
2023-08-11T05:41:43.816Z,114.75
2023-08-11T05:42:43.831Z,114.15
2023-08-11T05:43:43.852Z,115.13
2023-08-11T05:44:43.894Z,116.52
2023-08-11T05:45:43.997Z,114.81
2023-08-11T05:46:43.954Z,116.37
2023-08-11T05:47:44.054Z,116.40
2023-08-11T05:48:43.970Z,118.16
2023-08-11T05:49:44.015Z,115.20
2023-08-11T05:50:43.988Z,116.85
2023-08-11T05:51:44.018Z,117.82
2023-08-11T05:52:44.016Z,117.60
2023-08-11T05:53:44.048Z,119.73
2023-08-11T05:54:44.055Z,120.84
2023-08-11T05:55:44.113Z,116.63
2023-08-11T05:56:44.083Z,120.03
2023-08-11T05:57:44.115Z,120.53
2023-08-11T05:58:44.082Z,118.54
2023-08-11T05:59:44.100Z,120.49
2023-08-11T06:00:44.117Z,121.68
2023-08-11T06:01:44.275Z,122.83
2023-08-11T06:02:44.162Z,120.77
2023-08-11T06:03:44.131Z,121.27
2023-08-11T06:04:44.103Z,120.69
2023-08-11T06:05:44.097Z,119.57
2023-08-11T06:06:44.097Z,122.44
2023-08-11T06:07:52.351Z,117.97
2023-08-11T06:08:45.075Z,118.39
2023-08-11T06:09:44.071Z,119.36
2023-08-11T06:10:44.078Z,120.41
2023-08-11T06:11:44.081Z,121.88
2023-08-11T06:12:44.051Z,126.00
2023-08-11T06:13:44.052Z,124.77
2023-08-11T06:14:44.058Z,125.46
2023-08-11T06:15:44.063Z,126.29
2023-08-11T06:16:44.061Z,127.40
2023-08-11T06:17:44.065Z,127.49
2023-08-11T06:18:44.092Z,125.01
2023-08-11T06:19:44.177Z,127.97
2023-08-11T06:20:44.227Z,126.57
2023-08-11T06:21:44.348Z,129.49
2023-08-11T06:22:44.339Z,131.16
2023-08-11T06:23:44.409Z,130.57
2023-08-11T06:24:44.459Z,129.15
2023-08-11T06:25:44.525Z,130.24
2023-08-11T06:26:44.616Z,131.58
2023-08-11T06:27:44.633Z,135.15
2023-08-11T06:28:44.699Z,131.77
2023-08-11T06:29:44.826Z,134.54
2023-08-11T06:30:44.804Z,133.93
2023-08-11T06:31:44.882Z,134.80
2023-08-11T06:32:44.963Z,132.07
2023-08-11T06:33:44.951Z,132.50
2023-08-11T06:34:44.999Z,134.73
2023-08-11T06:35:45.026Z,133.47
2023-08-11T06:36:45.098Z,135.11
2023-08-11T06:37:45.137Z,133.43
2023-08-11T06:38:45.192Z,136.60
2023-08-11T06:39:45.242Z,135.89
2023-08-11T06:40:45.284Z,141.41
2023-08-11T06:41:45.345Z,137.73
2023-08-11T06:42:45.379Z,140.36
2023-08-11T06:43:45.433Z,139.57
2023-08-11T06:44:45.442Z,141.41
2023-08-11T06:45:45.557Z,138.71
2023-08-11T06:46:45.537Z,140.77
2023-08-11T06:47:45.587Z,141.42
2023-08-11T06:48:45.651Z,141.43
2023-08-11T06:49:45.650Z,140.58
2023-08-11T06:50:45.661Z,143.62
2023-08-11T06:51:45.712Z,139.44
2023-08-11T06:52:45.689Z,142.56
2023-08-11T06:53:45.725Z,146.19
2023-08-11T06:54:45.740Z,144.35
2023-08-11T06:55:45.768Z,143.17
2023-08-11T06:56:45.816Z,145.58
2023-08-11T06:57:45.865Z,145.86
2023-08-11T06:58:45.840Z,142.20
2023-08-11T06:59:45.862Z,142.61
2023-08-11T07:00:45.896Z,144.68
2023-08-11T07:01:45.917Z,140.82
2023-08-11T07:02:46.007Z,141.54
2023-08-11T07:03:45.928Z,143.24
2023-08-11T07:04:45.953Z,144.19
2023-08-11T07:05:45.973Z,143.65
2023-08-11T07:06:45.977Z,143.32
2023-08-11T07:07:45.995Z,145.64
2023-08-11T07:08:45.998Z,146.27
2023-08-11T07:09:46.010Z,144.94
2023-08-11T07:10:46.008Z,146.69
2023-08-11T07:11:46.034Z,144.57
2023-08-11T07:12:46.027Z,145.15
2023-08-11T07:13:46.056Z,149.45
2023-08-11T07:14:46.057Z,149.61
2023-08-11T07:15:46.057Z,148.97
2023-08-11T07:16:46.139Z,149.38
2023-08-11T07:17:46.164Z,150.61
2023-08-11T07:18:46.088Z,150.51
2023-08-11T07:19:46.081Z,151.53
2023-08-11T07:20:46.109Z,151.15
2023-08-11T07:21:46.087Z,151.15
2023-08-11T07:22:46.206Z,150.09
2023-08-11T07:23:46.097Z,149.70
2023-08-11T07:24:46.124Z,150.80
2023-08-11T07:25:46.113Z,150.87
2023-08-11T07:26:46.133Z,150.62
2023-08-11T07:27:46.101Z,151.27
2023-08-11T07:28:46.101Z,151.26
2023-08-11T07:29:46.095Z,154.50
2023-08-11T07:30:46.079Z,154.64
2023-08-11T07:31:46.068Z,152.06
2023-08-11T07:32:46.103Z,152.31
2023-08-11T07:33:46.084Z,155.06
2023-08-11T07:34:46.153Z,154.44
2023-08-11T07:35:46.196Z,154.36
2023-08-11T07:36:46.192Z,153.73
2023-08-11T07:37:46.222Z,153.03
2023-08-11T07:38:46.247Z,155.42
2023-08-11T07:39:46.297Z,152.34
2023-08-11T07:40:46.347Z,156.09
2023-08-11T07:41:46.419Z,155.82
2023-08-11T07:42:46.407Z,154.10
2023-08-11T07:43:46.477Z,156.78
2023-08-11T07:44:46.493Z,156.16
2023-08-11T07:45:46.508Z,155.49
2023-08-11T07:46:46.670Z,157.05
2023-08-11T07:47:46.754Z,157.92
2023-08-11T07:48:46.739Z,157.29
2023-08-11T07:49:46.716Z,157.83
2023-08-11T07:50:46.788Z,158.42
2023-08-11T07:51:46.838Z,157.30
2023-08-11T07:52:46.915Z,154.38
2023-08-11T07:53:47.007Z,156.54
2023-08-11T07:54:47.145Z,162.79
2023-08-11T07:55:47.128Z,157.35
2023-08-11T07:56:47.157Z,156.94
2023-08-11T07:57:47.218Z,155.99
2023-08-11T07:58:47.281Z,156.17
2023-08-11T07:59:47.342Z,159.92
2023-08-11T08:00:47.393Z,157.47
2023-08-11T08:01:47.477Z,157.23
2023-08-11T08:02:48.508Z,159.70
2023-08-11T08:03:47.711Z,156.73
2023-08-11T08:04:47.634Z,156.71
2023-08-11T08:05:47.680Z,157.85
2023-08-11T08:06:47.709Z,158.25
2023-08-11T08:07:47.772Z,159.20
2023-08-11T08:08:47.793Z,157.86
2023-08-11T08:09:47.869Z,156.48
2023-08-11T08:10:47.903Z,156.28
2023-08-11T08:11:47.945Z,157.59
2023-08-11T08:12:48.017Z,159.30
2023-08-11T08:13:48.077Z,156.57
2023-08-11T08:14:48.114Z,155.25
2023-08-11T08:15:48.148Z,158.75
2023-08-11T08:16:48.443Z,156.07
2023-08-11T08:17:48.299Z,156.98
2023-08-11T08:18:48.326Z,155.15
2023-08-11T08:19:48.383Z,155.32
2023-08-11T08:20:48.429Z,155.06
2023-08-11T08:21:48.437Z,153.82
2023-08-11T08:22:48.517Z,154.90
2023-08-11T08:23:48.579Z,152.95
2023-08-11T08:24:48.596Z,151.55
2023-08-11T08:25:48.649Z,152.62
2023-08-11T08:26:48.690Z,152.32
2023-08-11T08:27:57.420Z,151.31
2023-08-11T08:28:49.732Z,151.53
2023-08-11T08:29:48.701Z,151.32
2023-08-11T08:30:48.694Z,150.54
2023-08-11T08:31:48.702Z,148.69
2023-08-11T08:32:48.778Z,149.92
2023-08-11T08:33:50.390Z,147.77
2023-08-11T08:34:48.674Z,146.87
2023-08-11T08:35:48.691Z,146.04
2023-08-11T08:36:48.645Z,145.41
2023-08-11T08:37:48.711Z,143.33
2023-08-11T08:38:48.673Z,141.50
2023-08-11T08:39:48.678Z,141.37
2023-08-11T08:40:48.723Z,138.32
2023-08-11T08:41:48.713Z,137.70
2023-08-11T08:42:48.779Z,138.50
2023-08-11T08:43:48.813Z,137.60
2023-08-11T08:44:48.839Z,135.57
2023-08-11T08:45:48.881Z,134.44
2023-08-11T08:46:48.879Z,133.63
2023-08-11T08:47:48.922Z,132.81
2023-08-11T08:48:48.962Z,133.43
2023-08-11T08:49:48.971Z,131.49
2023-08-11T08:50:48.999Z,131.19
2023-08-11T08:51:49.015Z,128.12
2023-08-11T08:52:49.023Z,127.00
2023-08-11T08:53:49.051Z,128.98
2023-08-11T08:54:49.079Z,128.86
2023-08-11T08:55:49.081Z,126.07
2023-08-11T08:56:49.127Z,126.11
2023-08-11T08:57:49.140Z,123.71
2023-08-11T08:58:49.193Z,121.94
2023-08-11T08:59:49.166Z,123.43
2023-08-11T09:00:49.181Z,122.44
2023-08-11T09:01:49.256Z,121.34
2023-08-11T09:02:49.271Z,120.74
2023-08-11T09:03:49.379Z,120.33
2023-08-11T09:04:49.262Z,118.79
2023-08-11T09:05:49.277Z,118.04
2023-08-11T09:06:49.303Z,118.61
2023-08-11T09:07:49.357Z,119.59
2023-08-11T09:08:49.354Z,118.04
2023-08-11T09:09:49.402Z,118.22
2023-08-11T09:10:49.425Z,118.74
2023-08-11T09:11:49.478Z,116.75
2023-08-11T09:12:49.455Z,119.46
2023-08-11T09:13:49.532Z,119.84
2023-08-11T09:14:49.550Z,117.35
2023-08-11T09:15:49.594Z,119.52
2023-08-11T09:16:49.611Z,118.53
2023-08-11T09:17:49.697Z,118.17
2023-08-11T09:18:49.701Z,117.82
2023-08-11T09:19:49.720Z,117.52
2023-08-11T09:20:49.766Z,116.38
2023-08-11T09:21:49.803Z,118.31
2023-08-11T09:22:49.849Z,113.45
2023-08-11T09:23:49.868Z,113.69
2023-08-11T09:24:49.948Z,114.22
2023-08-11T09:25:49.990Z,112.36
2023-08-11T09:26:50.214Z,113.34
2023-08-11T09:27:50.166Z,113.68
2023-08-11T09:28:50.154Z,108.85
2023-08-11T09:29:50.202Z,109.59
2023-08-11T09:30:50.293Z,110.42
2023-08-11T09:31:50.318Z,109.12
2023-08-11T09:32:50.494Z,106.86
2023-08-11T09:33:50.422Z,111.42
2023-08-11T09:34:50.513Z,107.10
2023-08-11T09:35:50.529Z,107.25
2023-08-11T09:36:50.555Z,104.98
2023-08-11T09:37:50.599Z,103.52
2023-08-11T09:38:50.673Z,99.89
2023-08-11T09:39:50.745Z,98.09
2023-08-11T09:40:50.808Z,97.63
2023-08-11T09:41:50.833Z,94.26
2023-08-11T09:42:50.912Z,92.42
2023-08-11T09:43:50.998Z,96.04
2023-08-11T09:44:51.351Z,94.37
2023-08-11T09:45:51.162Z,94.44
2023-08-11T09:46:51.604Z,94.02
2023-08-11T09:47:51.322Z,89.83
2023-08-11T09:48:53.581Z,89.92
2023-08-11T09:49:51.286Z,90.57
2023-08-11T09:50:51.257Z,95.32
2023-08-11T09:51:51.276Z,87.80
2023-08-11T09:52:51.296Z,89.53
2023-08-11T09:53:51.261Z,89.26
2023-08-11T09:54:51.263Z,89.04
2023-08-11T09:55:51.245Z,87.44
2023-08-11T09:56:51.254Z,84.02
2023-08-11T09:57:51.234Z,85.46
2023-08-11T09:58:51.231Z,78.15
2023-08-11T09:59:51.207Z,82.64
2023-08-11T10:00:51.213Z,82.32
2023-08-11T10:01:51.248Z,80.59
2023-08-11T10:02:51.273Z,79.42
2023-08-11T10:03:51.293Z,79.45
2023-08-11T10:04:51.208Z,75.32
2023-08-11T10:05:51.183Z,76.71
2023-08-11T10:06:51.198Z,76.51
2023-08-11T10:07:51.156Z,76.33
2023-08-11T10:08:51.192Z,79.46
2023-08-11T10:09:51.167Z,77.21
2023-08-11T10:10:51.163Z,80.88
2023-08-11T10:11:51.197Z,79.53
2023-08-11T10:12:51.140Z,76.34
2023-08-11T10:13:51.128Z,75.04
2023-08-11T10:14:51.138Z,77.66
2023-08-11T10:15:51.181Z,72.07
2023-08-11T10:16:51.202Z,68.32
2023-08-11T10:17:51.139Z,68.13
2023-08-11T10:18:51.110Z,71.24
2023-08-11T10:19:51.108Z,66.61
2023-08-11T10:20:51.090Z,69.58
2023-08-11T10:21:51.084Z,70.66
2023-08-11T10:22:51.095Z,70.02
2023-08-11T10:23:51.160Z,70.52
2023-08-11T10:24:51.205Z,70.90
2023-08-11T10:25:51.183Z,67.89
2023-08-11T10:26:51.207Z,67.25
2023-08-11T10:27:51.223Z,65.46
2023-08-11T10:28:51.254Z,68.51
2023-08-11T10:29:51.350Z,64.87
2023-08-11T10:30:51.341Z,63.54
2023-08-11T10:31:51.401Z,63.96
2023-08-11T10:32:51.493Z,63.21
2023-08-11T10:33:51.438Z,60.28
2023-08-11T10:34:51.490Z,66.56
2023-08-11T10:35:51.551Z,67.77
2023-08-11T10:36:51.608Z,66.91
2023-08-11T10:37:51.618Z,63.73
2023-08-11T10:38:51.706Z,61.99
2023-08-11T10:39:51.709Z,62.85
2023-08-11T10:40:51.719Z,64.01
2023-08-11T10:41:51.794Z,66.31
2023-08-11T10:42:51.837Z,64.56
2023-08-11T10:43:51.844Z,63.98
2023-08-11T10:44:51.868Z,66.93
2023-08-11T10:45:51.918Z,71.00
2023-08-11T10:46:51.985Z,64.35
2023-08-11T10:47:51.972Z,69.43
2023-08-11T10:48:51.957Z,66.47
2023-08-11T10:49:51.951Z,67.63
2023-08-11T10:50:51.974Z,68.41
2023-08-11T10:51:53.719Z,70.44
2023-08-11T10:52:51.958Z,69.05
2023-08-11T10:53:51.980Z,67.96
2023-08-11T10:54:51.976Z,71.39
2023-08-11T10:55:51.951Z,68.27
2023-08-11T10:56:51.953Z,69.61
2023-08-11T10:57:51.951Z,67.47
2023-08-11T10:58:51.936Z,63.92
2023-08-11T10:59:51.953Z,66.84
2023-08-11T11:00:51.948Z,65.19
2023-08-11T11:01:51.913Z,66.29
2023-08-11T11:02:51.928Z,63.01
2023-08-11T11:03:51.899Z,66.00
2023-08-11T11:04:51.896Z,65.32
2023-08-11T11:05:51.902Z,64.90
2023-08-11T11:06:51.896Z,68.19
2023-08-11T11:07:52.023Z,69.70
2023-08-11T11:08:51.888Z,67.98
2023-08-11T11:09:51.880Z,70.26
2023-08-11T11:10:51.871Z,69.61
2023-08-11T11:11:51.842Z,71.77
2023-08-11T11:12:51.844Z,71.51
2023-08-11T11:13:51.855Z,75.23
2023-08-11T11:14:51.834Z,73.72
2023-08-11T11:15:51.873Z,74.91
2023-08-11T11:16:51.824Z,73.19
2023-08-11T11:17:51.849Z,69.92
2023-08-11T11:18:51.800Z,65.43
2023-08-11T11:19:51.784Z,64.45
2023-08-11T11:20:51.780Z,66.62
2023-08-11T11:21:51.780Z,67.76
2023-08-11T11:22:51.763Z,67.56
2023-08-11T11:23:51.761Z,67.44
2023-08-11T11:24:51.749Z,65.96
2023-08-11T11:25:51.752Z,62.10
2023-08-11T11:26:51.753Z,64.66
2023-08-11T11:27:51.731Z,60.24
2023-08-11T11:28:51.709Z,57.27
2023-08-11T11:29:51.698Z,61.83
2023-08-11T11:30:51.799Z,56.63
2023-08-11T11:31:51.703Z,59.63
2023-08-11T11:32:51.727Z,60.83
2023-08-11T11:33:51.699Z,69.13
2023-08-11T11:34:51.670Z,66.36
2023-08-11T11:35:51.665Z,63.19
2023-08-11T11:36:51.689Z,67.34
2023-08-11T11:37:51.646Z,67.14
2023-08-11T11:38:51.665Z,65.36
2023-08-11T11:39:51.633Z,65.99
2023-08-11T11:40:51.645Z,65.76
2023-08-11T11:41:51.632Z,65.15
2023-08-11T11:42:51.653Z,63.02
2023-08-11T11:43:51.668Z,65.28
2023-08-11T11:44:51.601Z,66.51
2023-08-11T11:45:52.557Z,66.17
2023-08-11T11:46:51.778Z,72.79
2023-08-11T11:47:51.748Z,73.73
2023-08-11T11:48:51.666Z,69.56
2023-08-11T11:49:51.713Z,69.18
2023-08-11T11:50:51.702Z,71.04
2023-08-11T11:51:51.659Z,73.74
2023-08-11T11:52:51.604Z,70.67
2023-08-11T11:53:51.610Z,71.16
2023-08-11T11:54:51.551Z,72.10
2023-08-11T11:55:51.547Z,70.87
2023-08-11T11:57:03.257Z,72.27
2023-08-11T11:57:52.533Z,72.53
2023-08-11T11:58:51.521Z,72.22
2023-08-11T11:59:51.513Z,71.55
2023-08-11T12:00:51.509Z,69.88
2023-08-11T12:01:51.548Z,74.26
2023-08-11T12:02:51.564Z,69.53
2023-08-11T12:03:51.682Z,70.79
2023-08-11T12:04:51.657Z,64.32
2023-08-11T12:05:51.539Z,62.17
2023-08-11T12:06:51.496Z,59.78
2023-08-11T12:07:51.484Z,62.04
2023-08-11T12:08:51.462Z,63.97
2023-08-11T12:09:51.439Z,62.47
2023-08-11T12:10:51.474Z,57.50
2023-08-11T12:11:51.454Z,51.03
2023-08-11T12:12:51.416Z,49.84
2023-08-11T12:13:51.426Z,50.16
2023-08-11T12:14:51.470Z,48.74
2023-08-11T12:15:51.405Z,43.80
2023-08-11T12:16:51.497Z,44.83
2023-08-11T12:17:51.438Z,42.09
2023-08-11T12:18:51.393Z,39.32
2023-08-11T12:19:51.408Z,43.42
2023-08-11T12:20:51.371Z,42.95
2023-08-11T12:21:51.395Z,44.09
2023-08-11T12:22:51.370Z,39.51
2023-08-11T12:23:51.377Z,38.90
2023-08-11T12:24:51.367Z,38.12
2023-08-11T12:25:51.361Z,36.49
2023-08-11T12:26:51.360Z,35.68
2023-08-11T12:27:51.369Z,38.76
2023-08-11T12:28:51.355Z,35.92
2023-08-11T12:29:51.319Z,37.66
2023-08-11T12:30:51.319Z,37.87
2023-08-11T12:31:51.297Z,37.59
2023-08-11T12:32:51.379Z,39.66
2023-08-11T12:33:51.387Z,36.12
2023-08-11T12:34:51.301Z,39.35